createdAt,value
2018-05-02T00:01:18.053Z,89.90
2018-05-02T00:03:44.227Z,89.80
2018-05-02T00:06:10.403Z,89.70
2018-05-02T00:08:36.559Z,89.80
2018-05-02T00:11:02.785Z,90.00
2018-05-02T00:13:29.039Z,90.00
2018-05-02T00:15:55.199Z,90.10
2018-05-02T00:18:21.343Z,90.20
2018-05-02T00:20:47.533Z,90.20
2018-05-02T00:23:14.433Z,90.40
2018-05-02T00:25:40.601Z,90.30
2018-05-02T00:28:07.501Z,90.50
2018-05-02T00:30:33.655Z,90.50
2018-05-02T00:32:59.826Z,90.30
2018-05-02T00:35:26.000Z,90.40
2018-05-02T00:37:52.192Z,90.50
2018-05-02T00:40:18.768Z,90.50
2018-05-02T00:42:44.948Z,90.30
2018-05-02T00:45:11.110Z,90.50
2018-05-02T00:47:37.268Z,90.80
2018-05-02T00:50:04.180Z,91.20
2018-05-02T00:52:30.323Z,91.20
2018-05-02T00:54:56.521Z,91.30
2018-05-02T00:57:22.683Z,91.20
2018-05-02T00:59:49.591Z,91.50
2018-05-02T01:02:15.760Z,91.40
2018-05-02T01:04:41.913Z,91.50
2018-05-02T01:07:08.057Z,91.60
2018-05-02T01:09:34.356Z,91.50
2018-05-02T01:12:00.554Z,91.50
2018-05-02T01:14:27.444Z,91.30
2018-05-02T01:16:53.632Z,91.20
2018-05-02T01:19:20.548Z,91.40
2018-05-02T01:21:46.712Z,91.40
2018-05-02T01:24:13.620Z,91.50
2018-05-02T01:26:39.808Z,91.50
2018-05-02T01:29:05.981Z,91.60
2018-05-02T01:31:32.158Z,91.50
2018-05-02T01:33:58.344Z,91.70
2018-05-02T01:36:24.511Z,91.70
2018-05-02T01:38:50.672Z,91.60
2018-05-02T01:41:16.808Z,91.50
2018-05-02T01:43:42.951Z,91.40
2018-05-02T01:46:09.921Z,90.80
2018-05-02T01:48:36.091Z,90.70
2018-05-02T01:51:02.267Z,90.80
2018-05-02T01:53:28.441Z,91.00
2018-05-02T01:55:54.648Z,91.10
2018-05-02T01:58:20.815Z,91.30
2018-05-02T02:00:46.957Z,91.20
2018-05-02T02:03:13.867Z,90.80
2018-05-02T02:05:40.073Z,90.90
2018-05-02T02:08:06.257Z,90.70
2018-05-02T02:10:33.191Z,90.50
2018-05-02T02:12:59.355Z,90.50
2018-05-02T02:15:25.529Z,90.40
2018-05-02T02:17:51.715Z,90.40
2018-05-02T02:20:17.864Z,90.30
2018-05-02T02:22:44.040Z,90.60
2018-05-02T02:25:10.958Z,90.50
2018-05-02T02:27:37.107Z,90.50
2018-05-02T02:30:03.324Z,90.60
2018-05-02T02:32:30.235Z,91.00
2018-05-02T02:34:56.394Z,91.00
2018-05-02T02:37:23.328Z,91.00
2018-05-02T02:39:49.497Z,91.00
2018-05-02T02:42:15.654Z,91.20
2018-05-02T02:44:41.844Z,91.40
2018-05-02T02:47:07.997Z,91.30
2018-05-02T02:49:34.190Z,91.30
2018-05-02T02:52:00.357Z,91.40
2018-05-02T02:54:26.515Z,91.40
2018-05-02T02:56:52.668Z,91.50
2018-05-02T02:59:18.857Z,91.60
2018-05-02T03:01:45.072Z,91.50
2018-05-02T03:04:11.243Z,91.60
2018-05-02T03:06:37.378Z,91.80
2018-05-02T03:09:04.352Z,91.90
2018-05-02T03:11:30.577Z,92.00
2018-05-02T03:13:56.725Z,92.00
2018-05-02T03:16:22.883Z,92.10
2018-05-02T03:18:49.817Z,92.20
2018-05-02T03:21:16.736Z,92.50
2018-05-02T03:23:42.877Z,92.40
2018-05-02T03:26:09.056Z,92.50
2018-05-02T03:28:35.240Z,92.60
2018-05-02T03:31:01.399Z,92.60
2018-05-02T03:33:27.561Z,92.60
2018-05-02T03:35:55.202Z,92.90
2018-05-02T03:38:21.391Z,92.70
2018-05-02T03:40:47.562Z,93.20
2018-05-02T03:43:13.696Z,92.80
2018-05-02T03:45:39.890Z,92.70
2018-05-02T03:48:06.059Z,92.70
2018-05-02T03:50:32.217Z,92.80
2018-05-02T03:52:59.184Z,92.80
2018-05-02T03:55:25.277Z,92.80
2018-05-02T03:57:51.444Z,92.50
2018-05-02T04:00:30.095Z,92.30
2018-05-02T04:03:08.489Z,92.20
2018-05-02T04:05:46.890Z,91.90
2018-05-02T04:08:13.039Z,91.80
2018-05-02T04:10:39.317Z,91.80
2018-05-02T04:13:05.576Z,91.70
2018-05-02T04:15:31.754Z,91.50
2018-05-02T04:17:58.689Z,91.10
2018-05-02T04:20:24.839Z,91.00
2018-05-02T04:22:51.740Z,91.10
2018-05-02T04:25:18.263Z,91.10
2018-05-02T04:27:44.424Z,91.10
2018-05-02T04:30:11.367Z,91.00
2018-05-02T04:32:37.521Z,91.30
2018-05-02T04:35:03.744Z,91.20
2018-05-02T04:37:30.634Z,91.40
2018-05-02T04:39:56.853Z,91.40
2018-05-02T04:42:22.995Z,91.60
2018-05-02T04:44:49.150Z,91.20
2018-05-02T04:47:16.099Z,90.20
2018-05-02T04:49:42.260Z,90.20
2018-05-02T04:52:08.417Z,90.20
2018-05-02T04:54:34.561Z,90.20
2018-05-02T04:57:00.737Z,90.30
2018-05-02T04:59:26.887Z,90.30
2018-05-02T05:01:53.051Z,90.50
2018-05-02T05:04:19.959Z,90.70
2018-05-02T05:06:46.194Z,90.70
2018-05-02T05:09:12.422Z,90.60
2018-05-02T05:11:38.618Z,90.60
2018-05-02T05:14:04.800Z,91.10
2018-05-02T05:16:31.734Z,91.50
2018-05-02T05:18:58.659Z,91.50
2018-05-02T05:21:24.891Z,91.80
2018-05-02T05:23:51.090Z,92.20
2018-05-02T05:26:17.305Z,92.40
2018-05-02T05:28:43.465Z,92.80
2018-05-02T05:31:09.659Z,93.00
2018-05-02T05:33:35.947Z,92.70
2018-05-02T05:36:02.117Z,92.80
2018-05-02T05:38:28.250Z,93.00
2018-05-02T05:40:54.399Z,93.30
2018-05-02T05:43:20.638Z,93.10
2018-05-02T05:45:46.837Z,93.20
2018-05-02T05:48:13.025Z,93.00
2018-05-02T05:50:39.953Z,92.60
2018-05-02T05:53:06.953Z,92.90
2018-05-02T05:55:33.152Z,92.80
2018-05-02T05:57:59.328Z,93.10
2018-05-02T06:00:25.582Z,93.60
2018-05-02T06:02:52.525Z,94.50
2018-05-02T06:05:19.450Z,95.20
2018-05-02T06:07:45.687Z,95.20
2018-05-02T06:10:11.845Z,95.10
2018-05-02T06:12:38.062Z,94.00
2018-05-02T06:15:05.006Z,94.20
2018-05-02T06:17:31.911Z,92.10
2018-05-02T06:19:58.093Z,92.00
2018-05-02T06:22:24.270Z,90.20
2018-05-02T06:24:50.490Z,88.20
2018-05-02T06:27:16.706Z,87.80
2018-05-02T06:29:42.860Z,89.00
2018-05-02T06:32:09.024Z,91.80
2018-05-02T06:34:35.197Z,93.00
2018-05-02T06:37:01.381Z,93.40
2018-05-02T06:39:27.596Z,94.00
2018-05-02T06:41:53.788Z,94.60
2018-05-02T06:44:19.930Z,94.40
2018-05-02T06:46:46.090Z,94.40
2018-05-02T06:49:12.264Z,94.60
2018-05-02T06:51:38.425Z,94.40
2018-05-02T06:54:04.581Z,94.70
2018-05-02T06:56:30.795Z,94.90
2018-05-02T06:58:56.961Z,95.00
2018-05-02T07:01:23.210Z,95.20
2018-05-02T07:03:50.169Z,95.60
2018-05-02T07:06:17.097Z,95.40
2018-05-02T07:08:43.291Z,95.40
2018-05-02T07:11:09.521Z,95.30
2018-05-02T07:13:35.849Z,95.00
2018-05-02T07:16:01.949Z,94.80
2018-05-02T07:18:28.126Z,94.70
2018-05-02T07:20:54.298Z,94.20
2018-05-02T07:23:20.495Z,93.70
2018-05-02T07:25:47.418Z,92.30
2018-05-02T07:28:13.617Z,92.30
2018-05-02T07:30:39.799Z,89.60
2018-05-02T07:33:06.893Z,83.50
2018-05-02T07:35:32.896Z,83.40
2018-05-02T07:37:59.072Z,83.20
2018-05-02T07:40:25.252Z,86.60
2018-05-02T07:42:51.418Z,90.70
2018-05-02T07:45:17.636Z,91.00
2018-05-02T07:47:43.825Z,90.90
2018-05-02T07:50:10.008Z,90.80
2018-05-02T07:52:36.207Z,89.70
2018-05-02T07:55:02.405Z,89.00
2018-05-02T07:57:28.585Z,89.50
2018-05-02T07:59:54.751Z,89.70
2018-05-02T08:02:20.969Z,90.50
2018-05-02T08:04:47.125Z,91.20
2018-05-02T08:07:13.265Z,91.20
2018-05-02T08:09:39.472Z,91.00
2018-05-02T08:12:05.655Z,90.60
2018-05-02T08:14:32.570Z,88.10
2018-05-02T08:16:58.732Z,88.00
2018-05-02T08:19:25.683Z,84.80
2018-05-02T08:21:52.592Z,82.10
2018-05-02T08:24:18.784Z,82.10
2018-05-02T08:26:44.962Z,80.20
2018-05-02T08:29:11.148Z,78.00
2018-05-02T08:31:37.330Z,75.50
2018-05-02T08:34:04.288Z,71.40
2018-05-02T08:36:30.459Z,71.20
2018-05-02T08:38:56.680Z,69.70
2018-05-02T08:41:22.884Z,70.40
2018-05-02T08:43:49.083Z,71.00
2018-05-02T08:46:15.996Z,71.50
2018-05-02T08:48:42.155Z,71.50
2018-05-02T08:51:08.541Z,71.60
2018-05-02T08:53:34.765Z,71.70
2018-05-02T08:56:00.969Z,72.60
2018-05-02T08:58:27.113Z,73.20
2018-05-02T09:00:53.356Z,73.80
2018-05-02T09:03:19.519Z,71.80
2018-05-02T09:05:46.467Z,62.80
2018-05-02T09:08:12.645Z,62.80
2018-05-02T09:10:38.819Z,59.20
2018-05-02T09:13:05.785Z,56.20
2018-05-02T09:15:31.945Z,56.20
2018-05-02T09:17:58.098Z,55.50
2018-05-02T09:20:25.018Z,55.30
2018-05-02T09:22:51.202Z,55.30
2018-05-02T09:25:17.350Z,55.00
2018-05-02T09:27:43.530Z,56.50
2018-05-02T09:30:10.445Z,59.40
2018-05-02T09:32:36.602Z,59.40
2018-05-02T09:35:03.550Z,60.50
2018-05-02T09:37:29.737Z,61.40
2018-05-02T09:39:55.972Z,59.10
2018-05-02T09:42:22.149Z,58.30
2018-05-02T09:44:48.312Z,58.90
2018-05-02T09:47:14.503Z,58.80
2018-05-02T09:49:40.686Z,58.30
2018-05-02T09:52:06.849Z,56.80
2018-05-02T09:54:33.050Z,56.70
2018-05-02T09:56:59.974Z,57.40
2018-05-02T09:59:26.190Z,58.00
2018-05-02T10:01:52.352Z,56.90
2018-05-02T10:04:19.252Z,55.50
2018-05-02T10:06:45.454Z,55.40
2018-05-02T10:09:11.640Z,55.30
2018-05-02T10:11:38.564Z,55.20
2018-05-02T10:14:04.748Z,55.20
2018-05-02T10:16:30.908Z,55.20
2018-05-02T10:18:57.063Z,54.90
2018-05-02T10:21:23.979Z,54.20
2018-05-02T10:23:50.168Z,54.20
2018-05-02T10:26:16.450Z,54.30
2018-05-02T10:28:42.617Z,53.80
2018-05-02T10:31:08.791Z,53.90
2018-05-02T10:33:34.974Z,54.40
2018-05-02T10:36:01.136Z,54.10
2018-05-02T10:38:27.294Z,53.20
2018-05-02T10:40:54.209Z,53.00
2018-05-02T10:43:20.400Z,53.00
2018-05-02T10:45:46.593Z,53.20
2018-05-02T10:48:13.533Z,53.10
2018-05-02T10:50:40.451Z,52.90
2018-05-02T10:53:06.624Z,52.80
2018-05-02T10:55:32.806Z,52.60
2018-05-02T10:57:59.016Z,52.80
2018-05-02T11:00:25.218Z,53.20
2018-05-02T11:02:51.399Z,53.20
2018-05-02T11:05:17.596Z,53.30
2018-05-02T11:07:44.532Z,53.70
2018-05-02T11:10:10.724Z,53.60
2018-05-02T11:12:37.774Z,54.60
2018-05-02T11:15:03.978Z,54.60
2018-05-02T11:17:30.132Z,54.80
2018-05-02T11:19:56.340Z,54.60
2018-05-02T11:22:23.252Z,55.50
2018-05-02T11:24:49.449Z,55.50
2018-05-02T11:27:15.648Z,54.40
2018-05-02T11:29:42.588Z,55.00
2018-05-02T11:32:09.511Z,54.60
2018-05-02T11:34:36.449Z,55.40
2018-05-02T11:37:02.658Z,54.80
2018-05-02T11:39:28.830Z,54.60
2018-05-02T11:41:55.773Z,54.70
2018-05-02T11:44:22.696Z,55.20
2018-05-02T11:46:48.870Z,55.20
2018-05-02T11:49:15.067Z,55.10
2018-05-02T11:51:41.300Z,54.80
2018-05-02T11:54:08.206Z,54.80
2018-05-02T11:56:34.396Z,54.80
2018-05-02T11:59:00.580Z,54.70
2018-05-02T12:01:26.816Z,54.50
2018-05-02T12:03:53.737Z,54.30
2018-05-02T12:06:19.919Z,54.30
2018-05-02T12:08:46.140Z,53.90
2018-05-02T12:11:12.332Z,53.90
2018-05-02T12:13:39.273Z,53.40
2018-05-02T12:16:05.464Z,53.40
2018-05-02T12:18:31.702Z,53.60
2018-05-02T12:20:59.504Z,53.70
2018-05-02T12:23:25.681Z,53.70
2018-05-02T12:25:51.880Z,53.40
2018-05-02T12:28:18.082Z,53.90
2018-05-02T12:30:45.046Z,53.80
2018-05-02T12:33:11.304Z,53.70
2018-05-02T12:35:37.475Z,54.10
2018-05-02T12:38:04.423Z,55.40
2018-05-02T12:40:31.574Z,56.00
2018-05-02T12:42:58.494Z,55.80
2018-05-02T12:45:24.812Z,55.70
2018-05-02T12:47:50.985Z,56.00
2018-05-02T12:50:17.928Z,54.80
2018-05-02T12:52:44.854Z,55.70
2018-05-02T12:55:11.045Z,56.30
2018-05-02T12:57:37.988Z,54.80
2018-05-02T13:00:04.205Z,54.70
2018-05-02T13:02:30.448Z,54.20
2018-05-02T13:04:57.334Z,54.80
2018-05-02T13:07:24.306Z,54.30
2018-05-02T13:09:50.566Z,54.30
2018-05-02T13:12:16.806Z,54.20
2018-05-02T13:14:43.018Z,53.80
2018-05-02T13:17:09.262Z,53.90
2018-05-02T13:19:35.477Z,53.40
2018-05-02T13:22:02.387Z,53.30
2018-05-02T13:24:28.566Z,53.30
2018-05-02T13:26:54.735Z,52.80
2018-05-02T13:29:20.989Z,52.90
2018-05-02T13:31:47.189Z,52.20
2018-05-02T13:34:13.461Z,51.80
2018-05-02T13:36:39.641Z,51.00
2018-05-02T13:39:05.860Z,50.10
2018-05-02T13:41:32.099Z,50.50
2018-05-02T13:43:58.418Z,50.90
2018-05-02T13:46:24.482Z,50.70
2018-05-02T13:48:50.688Z,50.60
2018-05-02T13:51:16.900Z,50.90
2018-05-02T13:53:43.084Z,50.30
2018-05-02T13:56:09.279Z,50.50
2018-05-02T13:58:35.434Z,50.50
2018-05-02T14:01:01.676Z,50.60
2018-05-02T14:03:27.921Z,51.50
2018-05-02T14:05:54.237Z,52.10
2018-05-02T14:08:21.388Z,52.80
2018-05-02T14:10:47.501Z,52.80
2018-05-02T14:13:13.685Z,52.30
2018-05-02T14:15:39.982Z,51.90
2018-05-02T14:18:06.881Z,51.60
2018-05-02T14:20:33.066Z,51.60
2018-05-02T14:22:59.275Z,52.00
2018-05-02T14:25:25.463Z,52.40
2018-05-02T14:27:51.672Z,52.50
2018-05-02T14:30:17.895Z,52.70
2018-05-02T14:32:44.169Z,53.20
2018-05-02T14:35:10.291Z,54.20
2018-05-02T14:37:36.514Z,53.90
2018-05-02T14:40:02.708Z,54.30
2018-05-02T14:42:28.888Z,54.30
2018-05-02T14:44:55.074Z,53.80
2018-05-02T14:47:21.274Z,53.90
2018-05-02T14:49:47.458Z,54.60
2018-05-02T14:52:13.717Z,54.50
2018-05-02T14:54:39.925Z,54.40
2018-05-02T14:57:06.090Z,54.30
2018-05-02T14:59:32.304Z,54.50
2018-05-02T15:01:58.681Z,54.70
2018-05-02T15:04:24.829Z,55.30
2018-05-02T15:06:51.992Z,54.60
2018-05-02T15:09:18.201Z,54.60
2018-05-02T15:11:45.140Z,54.30
2018-05-02T15:14:11.351Z,54.30
2018-05-02T15:16:37.606Z,54.50
2018-05-02T15:19:03.878Z,55.00
2018-05-02T15:21:30.107Z,55.40
2018-05-02T15:23:56.325Z,54.80
2018-05-02T15:26:22.532Z,54.50
2018-05-02T15:28:49.038Z,54.70
2018-05-02T15:31:15.291Z,54.70
2018-05-02T15:33:41.535Z,55.20
2018-05-02T15:36:07.899Z,55.30
2018-05-02T15:38:34.096Z,55.30
2018-05-02T15:41:00.339Z,55.20
2018-05-02T15:43:26.553Z,56.00
2018-05-02T15:45:52.783Z,56.50
2018-05-02T15:48:18.985Z,56.80
2018-05-02T15:50:45.195Z,57.20
2018-05-02T15:53:12.189Z,57.70
2018-05-02T15:55:39.185Z,58.10
2018-05-02T15:58:05.419Z,58.20
2018-05-02T16:00:31.665Z,59.10
2018-05-02T16:02:57.911Z,58.60
2018-05-02T16:05:24.117Z,59.20
2018-05-02T16:07:50.360Z,59.50
2018-05-02T16:10:17.417Z,59.70
2018-05-02T16:12:43.634Z,59.80
2018-05-02T16:15:10.095Z,60.60
2018-05-02T16:17:36.317Z,60.60
2018-05-02T16:20:02.603Z,60.80
2018-05-02T16:22:28.854Z,61.30
2018-05-02T16:24:55.014Z,61.40
2018-05-02T16:27:21.417Z,62.10
2018-05-02T16:29:47.658Z,62.70
2018-05-02T16:32:13.880Z,63.10
2018-05-02T16:34:40.079Z,63.90
2018-05-02T16:37:06.319Z,63.90
2018-05-02T16:39:32.546Z,64.40
2018-05-02T16:41:58.726Z,64.20
2018-05-02T16:44:24.996Z,63.90
2018-05-02T16:46:51.238Z,63.70
2018-05-02T16:49:17.518Z,64.20
2018-05-02T16:51:44.594Z,65.20
2018-05-02T16:54:10.776Z,65.10
2018-05-02T16:56:37.056Z,65.10
2018-05-02T16:59:03.969Z,67.30
2018-05-02T17:01:30.882Z,66.70
2018-05-02T17:03:57.141Z,66.60
2018-05-02T17:06:24.127Z,67.90
2018-05-02T17:08:50.474Z,67.90
2018-05-02T17:11:17.490Z,68.30
2018-05-02T17:13:43.948Z,68.70
2018-05-02T17:16:10.138Z,68.70
2018-05-02T17:18:36.523Z,69.10
2018-05-02T17:21:02.728Z,70.40
2018-05-02T17:23:28.965Z,70.10
2018-05-02T17:25:55.177Z,71.00
2018-05-02T17:28:21.405Z,71.80
2018-05-02T17:30:47.624Z,71.90
2018-05-02T17:33:13.899Z,72.30
2018-05-02T17:35:40.408Z,72.30
2018-05-02T17:38:06.615Z,72.90
2018-05-02T17:40:32.826Z,73.50
2018-05-02T17:42:59.106Z,74.00
2018-05-02T17:45:25.316Z,74.30
2018-05-02T17:47:52.434Z,74.70
2018-05-02T17:50:18.906Z,75.50
2018-05-02T17:52:45.191Z,75.90
2018-05-02T17:55:12.244Z,76.60
2018-05-02T17:57:38.580Z,77.10
2018-05-02T18:00:04.862Z,77.40
2018-05-02T18:02:31.192Z,78.10
2018-05-02T18:04:57.547Z,78.70
2018-05-02T18:07:23.812Z,79.10
2018-05-02T18:09:50.061Z,79.40
2018-05-02T18:12:17.297Z,79.60
2018-05-02T18:14:43.571Z,80.10
2018-05-02T18:17:10.609Z,80.80
2018-05-02T18:19:36.846Z,80.80
2018-05-02T18:22:03.909Z,81.70
2018-05-02T18:24:30.906Z,82.00
2018-05-02T18:26:57.103Z,82.00
2018-05-02T18:29:23.349Z,82.30
2018-05-02T18:31:49.659Z,82.80
2018-05-02T18:34:15.840Z,83.10
2018-05-02T18:36:42.031Z,83.30
2018-05-02T18:39:08.210Z,83.00
2018-05-02T18:41:34.398Z,83.90
2018-05-02T18:44:00.592Z,84.30
2018-05-02T18:46:26.799Z,84.50
2018-05-02T18:48:52.997Z,84.90
2018-05-02T18:51:19.233Z,85.30
2018-05-02T18:53:46.536Z,86.00
2018-05-02T18:56:13.678Z,86.40
2018-05-02T18:58:40.869Z,86.40
2018-05-02T19:01:07.381Z,86.60
2018-05-02T19:03:35.322Z,86.90
2018-05-02T19:06:01.707Z,87.20
2018-05-02T19:08:27.927Z,87.50
2018-05-02T19:10:54.196Z,88.00
2018-05-02T19:13:20.409Z,88.30
2018-05-02T19:15:47.377Z,88.90
2018-05-02T19:18:19.944Z,88.80
2018-05-02T19:20:46.434Z,89.40
2018-05-02T19:23:12.731Z,90.00
2018-05-02T19:25:45.054Z,90.30
2018-05-02T19:28:12.328Z,90.70
2018-05-02T19:30:39.565Z,90.70
2018-05-02T19:33:12.534Z,91.00
2018-05-02T19:35:38.768Z,91.30
2018-05-02T19:38:04.956Z,91.60
2018-05-02T19:40:37.200Z,91.80
2018-05-02T19:43:09.593Z,92.00
2018-05-02T19:45:35.849Z,92.20
2018-05-02T19:48:02.060Z,92.40
2018-05-02T19:50:28.239Z,92.60
2018-05-02T19:52:55.172Z,92.80
2018-05-02T19:55:22.149Z,92.80
2018-05-02T19:57:48.385Z,93.20
2018-05-02T20:00:20.805Z,92.90
2018-05-02T20:03:06.981Z,92.90
2018-05-02T20:05:33.217Z,93.20
2018-05-02T20:07:59.803Z,93.30
2018-05-02T20:10:32.126Z,93.40
2018-05-02T20:13:04.573Z,93.40
2018-05-02T20:15:30.808Z,93.80
2018-05-02T20:17:57.033Z,94.00
2018-05-02T20:20:23.262Z,94.80
2018-05-02T20:22:49.506Z,95.30
2018-05-02T20:25:15.829Z,95.50
2018-05-02T20:27:43.980Z,97.40
2018-05-02T20:30:10.262Z,97.40
2018-05-02T20:32:37.310Z,97.70
2018-05-02T20:35:04.340Z,97.60
2018-05-02T20:37:31.321Z,97.90
2018-05-02T20:39:57.538Z,97.90
2018-05-02T20:42:23.786Z,98.30
2018-05-02T20:45:02.732Z,98.50
2018-05-02T20:47:28.950Z,98.50
2018-05-02T20:49:55.169Z,97.90
2018-05-02T20:52:21.516Z,98.10
2018-05-02T20:54:47.804Z,98.80
2018-05-02T20:57:14.741Z,99.30
2018-05-02T20:59:41.708Z,99.40
2018-05-02T21:02:07.957Z,99.30
2018-05-02T21:04:34.222Z,99.50
2018-05-02T21:07:00.483Z,99.10
2018-05-02T21:09:26.721Z,99.00
2018-05-02T21:11:52.914Z,99.50
2018-05-02T21:14:19.914Z,99.90
2018-05-02T21:16:46.927Z,99.90
2018-05-02T21:19:13.167Z,99.90
2018-05-02T21:21:39.459Z,99.90
2018-05-02T21:24:05.668Z,99.90
2018-05-02T21:26:31.902Z,99.90
2018-05-02T21:28:58.175Z,99.90
2018-05-02T21:31:24.434Z,99.90
2018-05-02T21:33:50.660Z,99.70
2018-05-02T21:36:16.844Z,99.50
2018-05-02T21:38:43.773Z,99.90
2018-05-02T21:41:10.836Z,99.90
2018-05-02T21:43:37.065Z,99.90
2018-05-02T21:46:03.250Z,99.90
2018-05-02T21:48:29.451Z,99.90
2018-05-02T21:50:55.662Z,99.90
2018-05-02T21:53:21.859Z,99.90
2018-05-02T21:55:48.801Z,99.90
2018-05-02T21:58:15.750Z,99.90
2018-05-02T22:00:42.681Z,99.90
2018-05-02T22:03:08.844Z,99.90
2018-05-02T22:05:35.025Z,99.90
2018-05-02T22:08:01.225Z,99.90
2018-05-02T22:10:28.127Z,99.90
2018-05-02T22:12:54.294Z,99.90
2018-05-02T22:15:20.519Z,99.90
2018-05-02T22:17:46.738Z,99.90
2018-05-02T22:20:12.943Z,99.90
2018-05-02T22:22:39.147Z,99.90
2018-05-02T22:25:05.359Z,99.90
2018-05-02T22:27:31.590Z,99.90
2018-05-02T22:29:57.809Z,99.90
2018-05-02T22:32:24.003Z,99.90
2018-05-02T22:34:50.177Z,99.90
2018-05-02T22:37:16.381Z,99.90
2018-05-02T22:39:42.559Z,99.90
2018-05-02T22:42:08.772Z,99.90
2018-05-02T22:44:35.680Z,99.90
2018-05-02T22:47:01.871Z,99.90
2018-05-02T22:49:28.054Z,99.90
2018-05-02T22:51:54.940Z,99.90
2018-05-02T22:54:21.146Z,99.90
2018-05-02T22:56:47.392Z,99.90
2018-05-02T22:59:13.600Z,99.90
2018-05-02T23:01:39.792Z,99.90
2018-05-02T23:04:05.985Z,99.90
2018-05-02T23:06:32.178Z,99.90
2018-05-02T23:08:58.369Z,99.90
2018-05-02T23:11:24.574Z,99.90
2018-05-02T23:13:50.753Z,99.90
2018-05-02T23:16:16.918Z,99.90
2018-05-02T23:18:43.109Z,99.90
2018-05-02T23:21:10.040Z,99.90
2018-05-02T23:23:36.990Z,99.90
2018-05-02T23:26:03.945Z,99.90
2018-05-02T23:28:30.899Z,99.90
2018-05-02T23:30:57.095Z,99.90
2018-05-02T23:33:23.277Z,99.90
2018-05-02T23:35:49.431Z,99.90
2018-05-02T23:38:15.616Z,99.90
2018-05-02T23:40:41.802Z,99.90
2018-05-02T23:43:07.972Z,99.90
2018-05-02T23:45:34.168Z,99.90
2018-05-02T23:48:01.093Z,99.90
2018-05-02T23:50:27.272Z,99.90
2018-05-02T23:52:53.463Z,99.90
2018-05-02T23:55:19.662Z,99.90
2018-05-02T23:57:45.842Z,99.90
